LOG451 EGPF-EGPR

Flight info

Callsign LOG451
Flight time 0h 48m
Altitude 10000
Route DCT TIR DCT
Aircraft DHC6/L-SDFGR/C

Departure

Time 2026-04-22 21:09
Airport Glasgow Airport (EGPF)

Arrival

Time 2026-04-22 21:57
Airport Barra Airport (EGPR)
Time Latitude Longitude Altitude Speed Heading
2026-04-22 20:45 55.86595 -4.42989 29 ft 0 kts 253°
2026-04-22 21:03 55.86588 -4.42989 30 ft 6 kts 147°
2026-04-22 21:03 55.86613 -4.42898 30 ft 9 kts
2026-04-22 21:03 55.86683 -4.42926 29 ft 12 kts 346°
2026-04-22 21:03 55.86762 -4.42968 30 ft 5 kts 342°
2026-04-22 21:04 55.86764 -4.42969 29 ft 2 kts 345°
2026-04-22 21:04 55.86795 -4.42982 29 ft 8 kts 347°
2026-04-22 21:04 55.86836 -4.43065 29 ft 13 kts 262°
2026-04-22 21:04 55.86804 -4.43261 29 ft 19 kts 252°
2026-04-22 21:05 55.86765 -4.43502 29 ft 16 kts 255°
2026-04-22 21:05 55.86733 -4.43713 29 ft 18 kts 270°
2026-04-22 21:05 55.86773 -4.43771 28 ft 0 kts 18°
2026-04-22 21:07 55.86776 -4.43769 28 ft 2 kts 19°
2026-04-22 21:08 55.86795 -4.43758 28 ft 8 kts 19°
2026-04-22 21:08 55.86911 -4.43687 30 ft 24 kts 18°
2026-04-22 21:08 55.87055 -4.43570 35 ft 27 kts 41°
2026-04-22 21:08 55.87354 -4.43009 74 ft 88 kts 54°
2026-04-22 21:09 55.87760 -4.42164 561 ft 90 kts 56°
2026-04-22 21:09 55.88184 -4.41306 1066 ft 96 kts 52°
2026-04-22 21:09 55.88670 -4.40499 1601 ft 102 kts 34°
2026-04-22 21:09 55.89407 -4.40605 2143 ft 121 kts 338°
2026-04-22 21:10 55.89898 -4.41904 2636 ft 132 kts 297°
2026-04-22 21:10 55.90344 -4.43363 3162 ft 135 kts 307°
2026-04-22 21:10 55.90880 -4.44720 3701 ft 130 kts 300°
2026-04-22 21:10 55.91299 -4.46191 3990 ft 146 kts 292°
2026-04-22 21:11 55.91710 -4.47989 4094 ft 164 kts 289°
2026-04-22 21:11 55.92122 -4.49958 4220 ft 174 kts 289°
2026-04-22 21:11 55.92542 -4.51974 4546 ft 167 kts 290°
2026-04-22 21:11 55.92971 -4.53683 5307 ft 138 kts 293°
2026-04-22 21:12 55.93363 -4.55156 5887 ft 127 kts 292°
2026-04-22 21:12 55.93718 -4.56534 6333 ft 119 kts 290°
2026-04-22 21:12 55.94045 -4.57860 6738 ft 118 kts 290°
2026-04-22 21:12 55.94378 -4.59200 7179 ft 118 kts 290°
2026-04-22 21:13 55.94717 -4.60534 7552 ft 118 kts 291°
2026-04-22 21:13 55.95062 -4.61862 7925 ft 118 kts 291°
2026-04-22 21:13 55.95406 -4.63190 8296 ft 120 kts 289°
2026-04-22 21:13 55.95753 -4.64605 8650 ft 129 kts 290°
2026-04-22 21:14 55.96128 -4.66105 8982 ft 135 kts 290°
2026-04-22 21:14 55.96526 -4.67671 9267 ft 142 kts 290°
2026-04-22 21:14 55.96942 -4.69303 9506 ft 146 kts 290°
2026-04-22 21:14 55.97361 -4.70968 9762 ft 149 kts 290°
2026-04-22 21:15 55.97797 -4.72709 9885 ft 158 kts 290°
2026-04-22 21:15 55.98254 -4.74528 9947 ft 167 kts 291°
2026-04-22 21:15 55.98743 -4.76462 9973 ft 174 kts 291°
2026-04-22 21:15 55.99247 -4.78464 9985 ft 179 kts 291°
2026-04-22 21:16 55.99760 -4.80509 9987 ft 181 kts 291°
2026-04-22 21:16 56.00278 -4.82581 9989 ft 184 kts 291°
2026-04-22 21:16 56.00802 -4.84669 9985 ft 184 kts 291°
2026-04-22 21:16 56.01328 -4.86765 9988 ft 185 kts 291°
2026-04-22 21:17 56.01852 -4.88866 9981 ft 185 kts 291°
2026-04-22 21:17 56.02377 -4.90971 9987 ft 185 kts 291°
2026-04-22 21:17 56.02905 -4.93087 10053 ft 187 kts 291°
2026-04-22 21:17 56.03440 -4.95229 10080 ft 190 kts 291°
2026-04-22 21:18 56.03972 -4.97372 10062 ft 192 kts 291°
2026-04-22 21:18 56.04520 -4.99564 9999 ft 192 kts 291°
2026-04-22 21:18 56.05061 -5.01744 10000 ft 191 kts 291°
2026-04-22 21:18 56.05602 -5.03921 10002 ft 192 kts 291°
2026-04-22 21:19 56.06145 -5.06105 9987 ft 191 kts 291°
2026-04-22 21:19 56.06683 -5.08280 9969 ft 190 kts 291°
2026-04-22 21:19 56.07219 -5.10444 9972 ft 190 kts 291°
2026-04-22 21:19 56.07752 -5.12599 9965 ft 188 kts 291°
2026-04-22 21:20 56.08279 -5.14733 9965 ft 186 kts 291°
2026-04-22 21:20 56.08796 -5.16826 9969 ft 186 kts 291°
2026-04-22 21:20 56.09319 -5.18942 9985 ft 186 kts 291°
2026-04-22 21:20 56.09842 -5.21068 9975 ft 187 kts 290°
2026-04-22 21:21 56.10365 -5.23197 9968 ft 186 kts 291°
2026-04-22 21:21 56.10889 -5.25326 9966 ft 186 kts 291°
2026-04-22 21:21 56.11413 -5.27447 9971 ft 186 kts 291°
2026-04-22 21:21 56.11933 -5.29566 9985 ft 186 kts 290°
2026-04-22 21:22 56.12454 -5.31694 9981 ft 187 kts 290°
2026-04-22 21:22 56.12978 -5.33837 9969 ft 188 kts 291°
2026-04-22 21:22 56.13503 -5.35979 9972 ft 188 kts 291°
2026-04-22 21:22 56.14028 -5.38125 9977 ft 189 kts 290°
2026-04-22 21:23 56.14547 -5.40253 9951 ft 188 kts 290°
2026-04-22 21:23 56.15064 -5.42367 9956 ft 187 kts 291°
2026-04-22 21:23 56.15591 -5.44526 9967 ft 186 kts 290°
2026-04-22 21:23 56.16110 -5.46658 9969 ft 187 kts 290°
2026-04-22 21:24 56.16630 -5.48797 9969 ft 187 kts 290°
2026-04-22 21:24 56.17152 -5.50947 9988 ft 189 kts 290°
2026-04-22 21:24 56.17681 -5.53119 9959 ft 190 kts 290°
2026-04-22 21:24 56.18207 -5.55284 9951 ft 188 kts 290°
2026-04-22 21:25 56.18729 -5.57441 9967 ft 188 kts 290°
2026-04-22 21:25 56.19250 -5.59594 9952 ft 188 kts 290°
2026-04-22 21:25 56.19768 -5.61739 9955 ft 187 kts 290°
2026-04-22 21:25 56.20287 -5.63878 9960 ft 186 kts 290°
2026-04-22 21:26 56.20802 -5.66016 9961 ft 187 kts 290°
2026-04-22 21:26 56.21320 -5.68162 9951 ft 187 kts 290°
2026-04-22 21:26 56.21835 -5.70301 9954 ft 186 kts 290°
2026-04-22 21:26 56.22350 -5.72441 9953 ft 186 kts 290°
2026-04-22 21:27 56.22866 -5.74580 9952 ft 186 kts 290°
2026-04-22 21:27 56.23379 -5.76720 9954 ft 186 kts 290°
2026-04-22 21:27 56.23891 -5.78856 9954 ft 186 kts 290°
2026-04-22 21:27 56.24403 -5.80989 9954 ft 186 kts 290°
2026-04-22 21:28 56.24914 -5.83123 9956 ft 186 kts 290°
2026-04-22 21:28 56.25425 -5.85260 9954 ft 186 kts 290°
2026-04-22 21:28 56.25935 -5.87393 9955 ft 186 kts 290°
2026-04-22 21:28 56.26446 -5.89528 9952 ft 186 kts 289°
2026-04-22 21:29 56.26955 -5.91663 9953 ft 186 kts 290°
2026-04-22 21:29 56.27465 -5.93802 9952 ft 186 kts 289°
2026-04-22 21:29 56.27973 -5.95936 9946 ft 186 kts 289°
2026-04-22 21:29 56.28473 -5.98042 9954 ft 185 kts 289°
2026-04-22 21:30 56.28981 -6.00176 9954 ft 185 kts 289°
2026-04-22 21:30 56.29489 -6.02314 9950 ft 185 kts 289°
2026-04-22 21:30 56.29995 -6.04451 9994 ft 186 kts 289°
2026-04-22 21:30 56.30507 -6.06610 10003 ft 189 kts 289°
2026-04-22 21:31 56.31025 -6.08798 9983 ft 191 kts 289°
2026-04-22 21:31 56.31547 -6.10999 9966 ft 191 kts 289°
2026-04-22 21:31 56.32065 -6.13198 9950 ft 190 kts 289°
2026-04-22 21:31 56.32583 -6.15390 9947 ft 190 kts 289°
2026-04-22 21:32 56.33099 -6.17575 9936 ft 189 kts 289°
2026-04-22 21:32 56.33608 -6.19749 9930 ft 187 kts 289°
2026-04-22 21:32 56.34113 -6.21901 9940 ft 186 kts 289°
2026-04-22 21:32 56.34619 -6.24039 9942 ft 185 kts 289°
2026-04-22 21:33 56.35122 -6.26176 9944 ft 185 kts 289°
2026-04-22 21:33 56.35621 -6.28316 9944 ft 185 kts 289°
2026-04-22 21:33 56.36116 -6.30427 9945 ft 185 kts 289°
2026-04-22 21:33 56.36618 -6.32565 9942 ft 185 kts 289°
2026-04-22 21:34 56.37118 -6.34704 9942 ft 185 kts 289°
2026-04-22 21:34 56.37617 -6.36846 9947 ft 185 kts 289°
2026-04-22 21:34 56.38118 -6.38987 9941 ft 185 kts 289°
2026-04-22 21:34 56.38618 -6.41131 9942 ft 185 kts 288°
2026-04-22 21:35 56.39118 -6.43280 9942 ft 185 kts 288°
2026-04-22 21:35 56.39616 -6.45422 9940 ft 185 kts 288°
2026-04-22 21:35 56.40115 -6.47564 9944 ft 185 kts 289°
2026-04-22 21:35 56.40614 -6.49712 9944 ft 185 kts 288°
2026-04-22 21:36 56.41110 -6.51850 9977 ft 184 kts 288°
2026-04-22 21:36 56.41603 -6.53980 9986 ft 184 kts 288°
2026-04-22 21:36 56.42098 -6.56115 9993 ft 184 kts 288°
2026-04-22 21:36 56.42584 -6.58221 9992 ft 184 kts 288°
2026-04-22 21:37 56.43079 -6.60360 9997 ft 185 kts 288°
2026-04-22 21:37 56.43573 -6.62501 9995 ft 185 kts 288°
2026-04-22 21:37 56.44068 -6.64649 9997 ft 185 kts 288°
2026-04-22 21:37 56.44564 -6.66796 9999 ft 185 kts 288°
2026-04-22 21:38 56.45059 -6.68947 9997 ft 185 kts 288°
2026-04-22 21:38 56.45552 -6.71097 9991 ft 185 kts 288°
2026-04-22 21:38 56.46047 -6.73246 9993 ft 185 kts 288°
2026-04-22 21:38 56.46540 -6.75398 9995 ft 185 kts 288°
2026-04-22 21:39 56.47033 -6.77550 9996 ft 185 kts 288°
2026-04-22 21:39 56.47527 -6.79705 9996 ft 185 kts 288°
2026-04-22 21:39 56.48020 -6.81859 9998 ft 185 kts 288°
2026-04-22 21:39 56.48531 -6.84003 9997 ft 186 kts 291°
2026-04-22 21:40 56.49249 -6.85938 9994 ft 187 kts 308°
2026-04-22 21:40 56.50165 -6.87601 10025 ft 191 kts 316°
2026-04-22 21:40 56.51203 -6.89141 10002 ft 194 kts 321°
2026-04-22 21:40 56.52284 -6.90612 9993 ft 194 kts 322°
2026-04-22 21:41 56.53427 -6.91926 10001 ft 194 kts 330°
2026-04-22 21:41 56.54611 -6.93116 9980 ft 194 kts 330°
2026-04-22 21:41 56.55778 -6.94333 9980 ft 192 kts 329°
2026-04-22 21:41 56.56927 -6.95564 9986 ft 191 kts 329°
2026-04-22 21:42 56.58075 -6.96782 9992 ft 191 kts 329°
2026-04-22 21:42 56.59226 -6.97990 9993 ft 191 kts 329°
2026-04-22 21:42 56.60374 -6.99200 9993 ft 191 kts 329°
2026-04-22 21:42 56.61518 -7.00413 9996 ft 190 kts 329°
2026-04-22 21:43 56.62648 -7.01611 10000 ft 191 kts 329°
2026-04-22 21:43 56.63792 -7.02821 9994 ft 191 kts 329°
2026-04-22 21:43 56.64939 -7.04035 9995 ft 190 kts 329°
2026-04-22 21:43 56.66085 -7.05251 9981 ft 191 kts 329°
2026-04-22 21:44 56.67277 -7.06515 9656 ft 203 kts 329°
2026-04-22 21:44 56.68503 -7.07816 9334 ft 205 kts 329°
2026-04-22 21:44 56.69741 -7.09132 9030 ft 207 kts 329°
2026-04-22 21:44 56.70985 -7.10458 8722 ft 207 kts 329°
2026-04-22 21:45 56.72232 -7.11784 8407 ft 207 kts 329°
2026-04-22 21:45 56.73477 -7.13108 8107 ft 207 kts 329°
2026-04-22 21:45 56.74721 -7.14437 7807 ft 207 kts 329°
2026-04-22 21:45 56.75934 -7.15728 7506 ft 198 kts 329°
2026-04-22 21:46 56.77109 -7.16982 7203 ft 193 kts 329°
2026-04-22 21:46 56.78243 -7.18197 6915 ft 190 kts 329°
2026-04-22 21:46 56.79393 -7.19350 6605 ft 186 kts 339°
2026-04-22 21:46 56.80661 -7.19535 6281 ft 182 kts 14°
2026-04-22 21:47 56.81875 -7.19004 5978 ft 179 kts 17°
2026-04-22 21:47 56.83087 -7.18490 5675 ft 179 kts 17°
2026-04-22 21:47 56.84298 -7.17978 5371 ft 178 kts 17°
2026-04-22 21:47 56.85499 -7.17477 5063 ft 177 kts 17°
2026-04-22 21:48 56.86715 -7.17396 4737 ft 178 kts 351°
2026-04-22 21:48 56.87844 -7.18308 4419 ft 177 kts 332°
2026-04-22 21:48 56.88902 -7.19473 4146 ft 177 kts 329°
2026-04-22 21:48 56.89931 -7.20674 3926 ft 174 kts 328°
2026-04-22 21:49 56.90942 -7.21886 3695 ft 173 kts 328°
2026-04-22 21:49 56.91939 -7.23102 3469 ft 172 kts 328°
2026-04-22 21:49 56.92920 -7.24304 3235 ft 171 kts 327°
2026-04-22 21:49 56.93906 -7.25515 3003 ft 169 kts 327°
2026-04-22 21:50 56.94566 -7.26327 2840 ft 169 kts 327°
2026-04-22 21:50 56.95831 -7.27874 2527 ft 159 kts 327°
2026-04-22 21:50 56.96735 -7.28978 2293 ft 153 kts 327°
2026-04-22 21:50 56.97605 -7.30038 2126 ft 146 kts 327°
2026-04-22 21:51 56.98422 -7.31031 2054 ft 136 kts 327°
2026-04-22 21:51 56.99211 -7.31994 2026 ft 136 kts 327°
2026-04-22 21:51 56.99995 -7.32952 2013 ft 135 kts 327°
2026-04-22 21:52 57.01552 -7.34860 2145 ft 137 kts 327°
2026-04-22 21:52 57.02375 -7.35854 2168 ft 146 kts 327°
2026-04-22 21:52 57.03228 -7.36888 2071 ft 146 kts 327°
2026-04-22 21:52 57.04067 -7.37909 2029 ft 143 kts 327°
2026-04-22 21:53 57.04884 -7.38899 2125 ft 140 kts 327°
2026-04-22 21:53 57.05594 -7.40119 2156 ft 143 kts 296°
2026-04-22 21:53 57.05891 -7.41689 2020 ft 113 kts 281°
2026-04-22 21:53 57.06081 -7.43011 1866 ft 107 kts 279°
2026-04-22 21:54 57.06243 -7.44259 1740 ft 97 kts 278°
2026-04-22 21:54 57.06386 -7.45457 1612 ft 95 kts 278°
2026-04-22 21:54 57.06339 -7.46633 1383 ft 93 kts 234°
2026-04-22 21:54 57.05918 -7.47369 1209 ft 80 kts 202°
2026-04-22 21:55 57.05373 -7.47789 1120 ft 88 kts 196°
2026-04-22 21:55 57.05012 -7.48053 1015 ft 81 kts 196°
2026-04-22 21:55 57.04217 -7.48093 804 ft 81 kts 167°
2026-04-22 21:55 57.03878 -7.47923 642 ft 71 kts 158°
2026-04-22 21:56 57.03397 -7.47587 441 ft 89 kts 155°
2026-04-22 21:56 57.02949 -7.47012 304 ft 72 kts 135°
2026-04-22 21:56 57.02616 -7.46282 202 ft 71 kts 123°
2026-04-22 21:56 57.02408 -7.45410 122 ft 70 kts 95°
2026-04-22 21:57 57.02527 -7.44616 5 ft 59 kts 69°
2026-04-22 21:57 57.02626 -7.44271 1 ft 16 kts 330°
2026-04-22 21:57 57.02611 -7.44475 4 ft 18 kts 256°
2026-04-22 21:57 57.02581 -7.44702 6 ft 19 kts 255°
2026-04-22 21:58 57.02530 -7.44854 8 ft 8 kts 220°
2026-04-22 21:58 57.02527 -7.44858 8 ft 0 kts 217°